sensor_id;sensor_type;location;lat;lon;timestamp;temperature;humidity
76104;HTU21D;64831;44.870;37.336;2023-05-13T00:01:43;13.99;53.66
76104;HTU21D;64831;44.870;37.336;2023-05-13T00:04:09;14.04;53.43
76104;HTU21D;64831;44.870;37.336;2023-05-13T00:06:35;14.05;53.41
76104;HTU21D;64831;44.870;37.336;2023-05-13T00:09:02;14.11;53.28
76104;HTU21D;64831;44.870;37.336;2023-05-13T00:11:28;14.17;53.14
76104;HTU21D;64831;44.870;37.336;2023-05-13T00:13:53;14.23;52.99
76104;HTU21D;64831;44.870;37.336;2023-05-13T00:16:19;14.29;52.78
76104;HTU21D;64831;44.870;37.336;2023-05-13T00:18:48;14.38;52.65
76104;HTU21D;64831;44.870;37.336;2023-05-13T00:21:14;14.41;52.45
76104;HTU21D;64831;44.870;37.336;2023-05-13T00:23:41;14.45;52.21
76104;HTU21D;64831;44.870;37.336;2023-05-13T00:26:07;14.51;52.11
76104;HTU21D;64831;44.870;37.336;2023-05-13T00:28:32;14.54;52.04
76104;HTU21D;64831;44.870;37.336;2023-05-13T00:30:58;14.54;51.99
76104;HTU21D;64831;44.870;37.336;2023-05-13T00:33:24;14.54;52.07
76104;HTU21D;64831;44.870;37.336;2023-05-13T00:35:50;14.53;52.15
76104;HTU21D;64831;44.870;37.336;2023-05-13T00:38:16;14.53;52.24
76104;HTU21D;64831;44.870;37.336;2023-05-13T00:40:42;14.50;52.30
76104;HTU21D;64831;44.870;37.336;2023-05-13T00:43:09;14.50;52.39
76104;HTU21D;64831;44.870;37.336;2023-05-13T00:45:38;14.45;52.58
76104;HTU21D;64831;44.870;37.336;2023-05-13T00:48:05;14.43;52.72
76104;HTU21D;64831;44.870;37.336;2023-05-13T00:50:32;14.44;52.72
76104;HTU21D;64831;44.870;37.336;2023-05-13T00:52:59;14.41;52.85
76104;HTU21D;64831;44.870;37.336;2023-05-13T00:55:25;14.40;52.93
76104;HTU21D;64831;44.870;37.336;2023-05-13T00:57:51;14.40;52.98
76104;HTU21D;64831;44.870;37.336;2023-05-13T01:00:17;14.42;52.91
76104;HTU21D;64831;44.870;37.336;2023-05-13T01:03:01;14.42;52.81
76104;HTU21D;64831;44.870;37.336;2023-05-13T01:08:57;14.44;52.72
76104;HTU21D;64831;44.870;37.336;2023-05-13T01:11:27;14.47;52.73
76104;HTU21D;64831;44.870;37.336;2023-05-13T01:18:05;14.47;52.59
76104;HTU21D;64831;44.870;37.336;2023-05-13T01:20:32;14.48;52.51
76104;HTU21D;64831;44.870;37.336;2023-05-13T01:22:59;14.51;52.53
76104;HTU21D;64831;44.870;37.336;2023-05-13T01:25:25;14.51;52.47
76104;HTU21D;64831;44.870;37.336;2023-05-13T01:27:51;14.49;52.44
76104;HTU21D;64831;44.870;37.336;2023-05-13T01:30:19;14.53;52.42
76104;HTU21D;64831;44.870;37.336;2023-05-13T01:32:47;14.54;52.02
76104;HTU21D;64831;44.870;37.336;2023-05-13T01:35:15;14.59;52.04
76104;HTU21D;64831;44.870;37.336;2023-05-13T01:37:45;14.60;51.88
76104;HTU21D;64831;44.870;37.336;2023-05-13T01:40:12;14.64;51.82
76104;HTU21D;64831;44.870;37.336;2023-05-13T01:42:38;14.63;51.71
76104;HTU21D;64831;44.870;37.336;2023-05-13T01:45:05;14.65;51.66
76104;HTU21D;64831;44.870;37.336;2023-05-13T01:47:32;14.66;51.62
76104;HTU21D;64831;44.870;37.336;2023-05-13T01:49:59;14.64;51.54
76104;HTU21D;64831;44.870;37.336;2023-05-13T01:52:26;14.68;51.56
76104;HTU21D;64831;44.870;37.336;2023-05-13T01:54:52;14.67;51.72
76104;HTU21D;64831;44.870;37.336;2023-05-13T01:57:18;14.62;51.87
76104;HTU21D;64831;44.870;37.336;2023-05-13T01:59:45;14.56;52.10
76104;HTU21D;64831;44.870;37.336;2023-05-13T02:02:11;14.54;52.06
76104;HTU21D;64831;44.870;37.336;2023-05-13T02:04:37;14.56;51.97
76104;HTU21D;64831;44.870;37.336;2023-05-13T02:07:03;14.65;51.82
76104;HTU21D;64831;44.870;37.336;2023-05-13T02:09:31;14.66;51.84
76104;HTU21D;64831;44.870;37.336;2023-05-13T02:11:57;14.68;51.83
76104;HTU21D;64831;44.870;37.336;2023-05-13T02:14:23;14.65;51.88
76104;HTU21D;64831;44.870;37.336;2023-05-13T02:16:49;14.65;51.96
76104;HTU21D;64831;44.870;37.336;2023-05-13T02:19:15;14.64;51.89
76104;HTU21D;64831;44.870;37.336;2023-05-13T02:21:41;14.64;52.00
76104;HTU21D;64831;44.870;37.336;2023-05-13T02:24:08;14.64;52.02
76104;HTU21D;64831;44.870;37.336;2023-05-13T02:26:34;14.63;52.08
76104;HTU21D;64831;44.870;37.336;2023-05-13T02:29:00;14.60;52.19
76104;HTU21D;64831;44.870;37.336;2023-05-13T02:31:27;14.63;52.08
76104;HTU21D;64831;44.870;37.336;2023-05-13T02:33:53;14.59;52.20
76104;HTU21D;64831;44.870;37.336;2023-05-13T02:36:19;14.60;52.19
76104;HTU21D;64831;44.870;37.336;2023-05-13T02:38:46;14.59;52.29
76104;HTU21D;64831;44.870;37.336;2023-05-13T02:41:14;14.57;52.26
76104;HTU21D;64831;44.870;37.336;2023-05-13T02:43:40;14.58;52.30
76104;HTU21D;64831;44.870;37.336;2023-05-13T02:46:07;14.58;52.33
76104;HTU21D;64831;44.870;37.336;2023-05-13T02:48:33;14.58;52.33
76104;HTU21D;64831;44.870;37.336;2023-05-13T02:51:00;14.56;52.40
76104;HTU21D;64831;44.870;37.336;2023-05-13T02:53:26;14.58;52.37
76104;HTU21D;64831;44.870;37.336;2023-05-13T02:55:57;14.59;52.38
76104;HTU21D;64831;44.870;37.336;2023-05-13T02:58:25;14.57;52.49
76104;HTU21D;64831;44.870;37.336;2023-05-13T03:00:52;14.56;52.49
76104;HTU21D;64831;44.870;37.336;2023-05-13T03:03:17;14.57;52.52
76104;HTU21D;64831;44.870;37.336;2023-05-13T03:05:43;14.59;52.41
76104;HTU21D;64831;44.870;37.336;2023-05-13T03:08:09;14.62;52.39
76104;HTU21D;64831;44.870;37.336;2023-05-13T03:10:36;14.62;52.38
76104;HTU21D;64831;44.870;37.336;2023-05-13T03:13:02;14.58;52.59
76104;HTU21D;64831;44.870;37.336;2023-05-13T03:15:28;14.62;52.43
76104;HTU21D;64831;44.870;37.336;2023-05-13T03:17:54;14.60;52.56
76104;HTU21D;64831;44.870;37.336;2023-05-13T03:20:20;14.59;52.56
76104;HTU21D;64831;44.870;37.336;2023-05-13T03:22:46;14.62;52.63
76104;HTU21D;64831;44.870;37.336;2023-05-13T03:25:12;14.65;52.53
76104;HTU21D;64831;44.870;37.336;2023-05-13T03:27:42;14.67;52.48
76104;HTU21D;64831;44.870;37.336;2023-05-13T03:30:10;14.65;52.53
76104;HTU21D;64831;44.870;37.336;2023-05-13T03:32:44;14.67;52.39
76104;HTU21D;64831;44.870;37.336;2023-05-13T03:35:11;14.70;52.32
76104;HTU21D;64831;44.870;37.336;2023-05-13T03:37:37;14.74;52.34
76104;HTU21D;64831;44.870;37.336;2023-05-13T03:40:05;14.75;52.33
76104;HTU21D;64831;44.870;37.336;2023-05-13T03:42:32;14.80;52.27
76104;HTU21D;64831;44.870;37.336;2023-05-13T03:45:01;14.82;52.34
76104;HTU21D;64831;44.870;37.336;2023-05-13T03:47:27;14.83;52.36
76104;HTU21D;64831;44.870;37.336;2023-05-13T03:49:58;14.83;52.27
76104;HTU21D;64831;44.870;37.336;2023-05-13T03:52:24;14.85;52.24
76104;HTU21D;64831;44.870;37.336;2023-05-13T03:54:50;14.84;52.26
76104;HTU21D;64831;44.870;37.336;2023-05-13T03:57:16;14.87;52.31
76104;HTU21D;64831;44.870;37.336;2023-05-13T03:59:42;14.87;52.39
76104;HTU21D;64831;44.870;37.336;2023-05-13T04:02:08;14.93;52.36
76104;HTU21D;64831;44.870;37.336;2023-05-13T04:04:34;14.98;52.26
76104;HTU21D;64831;44.870;37.336;2023-05-13T04:07:00;15.00;52.37
76104;HTU21D;64831;44.870;37.336;2023-05-13T04:09:25;15.06;52.20
76104;HTU21D;64831;44.870;37.336;2023-05-13T04:11:51;15.08;52.35
76104;HTU21D;64831;44.870;37.336;2023-05-13T04:14:18;15.09;52.30
76104;HTU21D;64831;44.870;37.336;2023-05-13T04:16:43;15.13;52.29
76104;HTU21D;64831;44.870;37.336;2023-05-13T04:19:12;15.13;52.49
76104;HTU21D;64831;44.870;37.336;2023-05-13T04:21:38;15.18;52.43
76104;HTU21D;64831;44.870;37.336;2023-05-13T04:24:04;15.19;52.54
76104;HTU21D;64831;44.870;37.336;2023-05-13T04:26:30;15.24;52.50
76104;HTU21D;64831;44.870;37.336;2023-05-13T04:28:56;15.27;52.53
76104;HTU21D;64831;44.870;37.336;2023-05-13T04:31:23;15.34;52.46
76104;HTU21D;64831;44.870;37.336;2023-05-13T04:33:49;15.40;52.53
76104;HTU21D;64831;44.870;37.336;2023-05-13T04:36:16;15.46;52.53
76104;HTU21D;64831;44.870;37.336;2023-05-13T04:38:43;15.52;52.46
76104;HTU21D;64831;44.870;37.336;2023-05-13T04:41:08;15.58;52.28
76104;HTU21D;64831;44.870;37.336;2023-05-13T04:43:39;15.67;52.11
76104;HTU21D;64831;44.870;37.336;2023-05-13T04:46:05;15.74;51.88
76104;HTU21D;64831;44.870;37.336;2023-05-13T04:48:31;15.81;51.88
76104;HTU21D;64831;44.870;37.336;2023-05-13T04:50:57;15.85;51.88
76104;HTU21D;64831;44.870;37.336;2023-05-13T04:53:24;15.93;51.73
76104;HTU21D;64831;44.870;37.336;2023-05-13T04:55:51;16.01;51.67
76104;HTU21D;64831;44.870;37.336;2023-05-13T04:58:26;16.07;51.47
76104;HTU21D;64831;44.870;37.336;2023-05-13T05:00:52;16.11;51.30
76104;HTU21D;64831;44.870;37.336;2023-05-13T05:03:20;16.15;51.02
76104;HTU21D;64831;44.870;37.336;2023-05-13T05:05:46;16.17;50.86
76104;HTU21D;64831;44.870;37.336;2023-05-13T05:08:15;16.22;50.85
76104;HTU21D;64831;44.870;37.336;2023-05-13T05:10:41;16.20;50.90
76104;HTU21D;64831;44.870;37.336;2023-05-13T05:13:08;16.24;50.97
76104;HTU21D;64831;44.870;37.336;2023-05-13T05:15:35;16.28;50.85
76104;HTU21D;64831;44.870;37.336;2023-05-13T05:18:03;16.32;50.76
76104;HTU21D;64831;44.870;37.336;2023-05-13T05:20:31;16.41;50.87
76104;HTU21D;64831;44.870;37.336;2023-05-13T05:23:00;16.45;50.64
76104;HTU21D;64831;44.870;37.336;2023-05-13T05:25:28;16.51;50.37
76104;HTU21D;64831;44.870;37.336;2023-05-13T05:27:54;16.56;50.50
76104;HTU21D;64831;44.870;37.336;2023-05-13T05:30:20;16.60;50.48
76104;HTU21D;64831;44.870;37.336;2023-05-13T05:32:53;16.63;50.20
76104;HTU21D;64831;44.870;37.336;2023-05-13T05:35:19;16.70;50.15
76104;HTU21D;64831;44.870;37.336;2023-05-13T05:37:46;16.70;50.06
76104;HTU21D;64831;44.870;37.336;2023-05-13T05:40:12;16.76;50.11
76104;HTU21D;64831;44.870;37.336;2023-05-13T05:42:39;16.81;49.99
76104;HTU21D;64831;44.870;37.336;2023-05-13T05:45:05;16.94;49.89
76104;HTU21D;64831;44.870;37.336;2023-05-13T05:47:31;17.07;49.49
76104;HTU21D;64831;44.870;37.336;2023-05-13T05:49:58;17.14;49.42
76104;HTU21D;64831;44.870;37.336;2023-05-13T05:52:25;17.25;49.35
76104;HTU21D;64831;44.870;37.336;2023-05-13T05:54:51;17.37;49.15
76104;HTU21D;64831;44.870;37.336;2023-05-13T05:57:17;17.52;48.97
76104;HTU21D;64831;44.870;37.336;2023-05-13T05:59:44;17.63;48.53
76104;HTU21D;64831;44.870;37.336;2023-05-13T06:02:11;17.72;48.33
76104;HTU21D;64831;44.870;37.336;2023-05-13T06:04:37;17.78;48.18
76104;HTU21D;64831;44.870;37.336;2023-05-13T06:07:04;17.84;48.22
76104;HTU21D;64831;44.870;37.336;2023-05-13T06:09:30;17.91;47.84
76104;HTU21D;64831;44.870;37.336;2023-05-13T06:11:56;17.97;47.72
76104;HTU21D;64831;44.870;37.336;2023-05-13T06:14:22;18.05;47.76
76104;HTU21D;64831;44.870;37.336;2023-05-13T06:16:48;18.27;47.69
76104;HTU21D;64831;44.870;37.336;2023-05-13T06:19:15;18.48;47.17
76104;HTU21D;64831;44.870;37.336;2023-05-13T06:21:41;18.61;46.77
76104;HTU21D;64831;44.870;37.336;2023-05-13T06:24:08;18.74;46.27
76104;HTU21D;64831;44.870;37.336;2023-05-13T06:26:34;18.85;46.23
76104;HTU21D;64831;44.870;37.336;2023-05-13T06:29:00;18.92;46.17
76104;HTU21D;64831;44.870;37.336;2023-05-13T06:31:26;19.03;45.81
76104;HTU21D;64831;44.870;37.336;2023-05-13T06:33:52;19.08;45.83
76104;HTU21D;64831;44.870;37.336;2023-05-13T06:36:18;19.15;45.61
76104;HTU21D;64831;44.870;37.336;2023-05-13T06:38:44;19.12;45.04
76104;HTU21D;64831;44.870;37.336;2023-05-13T06:41:10;19.15;44.86
76104;HTU21D;64831;44.870;37.336;2023-05-13T06:43:37;19.16;45.14
76104;HTU21D;64831;44.870;37.336;2023-05-13T06:46:26;19.20;45.21
76104;HTU21D;64831;44.870;37.336;2023-05-13T06:48:52;19.22;45.14
76104;HTU21D;64831;44.870;37.336;2023-05-13T06:51:21;19.14;45.23
76104;HTU21D;64831;44.870;37.336;2023-05-13T06:53:47;19.13;45.32
76104;HTU21D;64831;44.870;37.336;2023-05-13T06:56:13;19.26;45.29
76104;HTU21D;64831;44.870;37.336;2023-05-13T06:58:39;19.27;45.13
76104;HTU21D;64831;44.870;37.336;2023-05-13T07:01:05;19.33;45.12
76104;HTU21D;64831;44.870;37.336;2023-05-13T07:03:31;19.39;45.00
76104;HTU21D;64831;44.870;37.336;2023-05-13T07:05:56;19.28;45.03
76104;HTU21D;64831;44.870;37.336;2023-05-13T07:08:22;19.28;44.92
76104;HTU21D;64831;44.870;37.336;2023-05-13T07:10:48;19.38;44.88
76104;HTU21D;64831;44.870;37.336;2023-05-13T07:13:14;19.41;44.88
76104;HTU21D;64831;44.870;37.336;2023-05-13T07:15:40;19.45;44.99
76104;HTU21D;64831;44.870;37.336;2023-05-13T07:18:07;19.52;45.25
76104;HTU21D;64831;44.870;37.336;2023-05-13T07:20:33;19.60;45.50
76104;HTU21D;64831;44.870;37.336;2023-05-13T07:22:59;19.76;45.94
76104;HTU21D;64831;44.870;37.336;2023-05-13T07:25:25;19.96;45.84
76104;HTU21D;64831;44.870;37.336;2023-05-13T07:27:51;20.14;45.80
76104;HTU21D;64831;44.870;37.336;2023-05-13T07:30:17;20.33;45.77
76104;HTU21D;64831;44.870;37.336;2023-05-13T07:32:43;20.46;45.18
76104;HTU21D;64831;44.870;37.336;2023-05-13T07:35:09;20.58;44.73
76104;HTU21D;64831;44.870;37.336;2023-05-13T07:37:35;20.71;44.88
76104;HTU21D;64831;44.870;37.336;2023-05-13T07:40:05;20.85;44.59
76104;HTU21D;64831;44.870;37.336;2023-05-13T07:42:31;21.06;44.39
76104;HTU21D;64831;44.870;37.336;2023-05-13T07:44:57;21.19;43.64
76104;HTU21D;64831;44.870;37.336;2023-05-13T07:47:23;21.50;43.32
76104;HTU21D;64831;44.870;37.336;2023-05-13T07:49:49;21.64;42.66
76104;HTU21D;64831;44.870;37.336;2023-05-13T07:52:15;21.77;43.04
76104;HTU21D;64831;44.870;37.336;2023-05-13T07:54:41;21.95;42.32
76104;HTU21D;64831;44.870;37.336;2023-05-13T07:57:07;22.19;41.97
76104;HTU21D;64831;44.870;37.336;2023-05-13T07:59:33;22.19;41.62
76104;HTU21D;64831;44.870;37.336;2023-05-13T08:01:59;22.37;41.36
76104;HTU21D;64831;44.870;37.336;2023-05-13T08:04:25;22.51;40.95
76104;HTU21D;64831;44.870;37.336;2023-05-13T08:06:51;22.73;40.88
76104;HTU21D;64831;44.870;37.336;2023-05-13T08:09:17;22.77;40.30
76104;HTU21D;64831;44.870;37.336;2023-05-13T08:11:43;22.84;40.28
76104;HTU21D;64831;44.870;37.336;2023-05-13T08:14:09;22.87;40.04
76104;HTU21D;64831;44.870;37.336;2023-05-13T08:16:35;22.82;39.58
76104;HTU21D;64831;44.870;37.336;2023-05-13T08:19:02;22.77;39.26
76104;HTU21D;64831;44.870;37.336;2023-05-13T08:21:27;22.65;39.44
76104;HTU21D;64831;44.870;37.336;2023-05-13T08:23:54;22.58;39.31
76104;HTU21D;64831;44.870;37.336;2023-05-13T08:26:20;22.36;39.38
76104;HTU21D;64831;44.870;37.336;2023-05-13T08:28:46;22.23;39.39
76104;HTU21D;64831;44.870;37.336;2023-05-13T08:31:12;22.10;39.29
76104;HTU21D;64831;44.870;37.336;2023-05-13T08:33:38;21.90;39.05
76104;HTU21D;64831;44.870;37.336;2023-05-13T08:36:06;21.66;39.72
76104;HTU21D;64831;44.870;37.336;2023-05-13T08:38:32;21.59;39.99
76104;HTU21D;64831;44.870;37.336;2023-05-13T08:40:58;21.70;40.89
76104;HTU21D;64831;44.870;37.336;2023-05-13T08:43:26;22.13;41.54
76104;HTU21D;64831;44.870;37.336;2023-05-13T08:45:53;22.67;41.39
76104;HTU21D;64831;44.870;37.336;2023-05-13T08:48:21;23.03;40.25
76104;HTU21D;64831;44.870;37.336;2023-05-13T08:50:48;23.28;39.08
76104;HTU21D;64831;44.870;37.336;2023-05-13T08:53:16;23.47;38.45
76104;HTU21D;64831;44.870;37.336;2023-05-13T08:55:43;23.45;37.56
76104;HTU21D;64831;44.870;37.336;2023-05-13T08:58:09;23.70;37.63
76104;HTU21D;64831;44.870;37.336;2023-05-13T09:00:38;23.79;37.57
76104;HTU21D;64831;44.870;37.336;2023-05-13T09:03:04;23.90;37.34
76104;HTU21D;64831;44.870;37.336;2023-05-13T09:05:31;23.89;37.04
76104;HTU21D;64831;44.870;37.336;2023-05-13T09:07:57;24.16;36.86
76104;HTU21D;64831;44.870;37.336;2023-05-13T09:10:25;24.04;36.20
76104;HTU21D;64831;44.870;37.336;2023-05-13T09:12:54;24.03;35.60
76104;HTU21D;64831;44.870;37.336;2023-05-13T09:15:24;24.18;35.70
76104;HTU21D;64831;44.870;37.336;2023-05-13T09:17:58;24.31;35.73
76104;HTU21D;64831;44.870;37.336;2023-05-13T09:20:24;24.35;35.79
76104;HTU21D;64831;44.870;37.336;2023-05-13T09:22:53;24.38;35.47
76104;HTU21D;64831;44.870;37.336;2023-05-13T09:25:20;24.46;35.54
76104;HTU21D;64831;44.870;37.336;2023-05-13T09:27:54;24.33;35.43
76104;HTU21D;64831;44.870;37.336;2023-05-13T09:30:23;24.47;35.65
76104;HTU21D;64831;44.870;37.336;2023-05-13T09:33:15;24.41;34.72
76104;HTU21D;64831;44.870;37.336;2023-05-13T09:35:49;24.35;34.86
76104;HTU21D;64831;44.870;37.336;2023-05-13T09:38:17;24.35;35.30
76104;HTU21D;64831;44.870;37.336;2023-05-13T09:40:54;24.30;34.99
76104;HTU21D;64831;44.870;37.336;2023-05-13T09:43:22;24.24;35.40
76104;HTU21D;64831;44.870;37.336;2023-05-13T09:45:52;24.36;35.25
76104;HTU21D;64831;44.870;37.336;2023-05-13T09:48:20;24.26;34.57
76104;HTU21D;64831;44.870;37.336;2023-05-13T09:50:48;24.08;34.94
76104;HTU21D;64831;44.870;37.336;2023-05-13T09:53:15;23.82;34.93
76104;HTU21D;64831;44.870;37.336;2023-05-13T09:55:46;23.58;35.66
76104;HTU21D;64831;44.870;37.336;2023-05-13T09:58:12;23.68;35.83
76104;HTU21D;64831;44.870;37.336;2023-05-13T10:00:39;23.67;36.00
76104;HTU21D;64831;44.870;37.336;2023-05-13T10:03:06;23.56;35.86
76104;HTU21D;64831;44.870;37.336;2023-05-13T10:05:33;23.62;35.91
76104;HTU21D;64831;44.870;37.336;2023-05-13T10:08:01;23.65;36.02
76104;HTU21D;64831;44.870;37.336;2023-05-13T10:10:32;23.50;36.21
76104;HTU21D;64831;44.870;37.336;2023-05-13T10:13:07;23.36;36.53
76104;HTU21D;64831;44.870;37.336;2023-05-13T10:15:33;23.15;36.98
76104;HTU21D;64831;44.870;37.336;2023-05-13T10:18:00;22.91;37.32
76104;HTU21D;64831;44.870;37.336;2023-05-13T10:20:26;22.84;37.58
76104;HTU21D;64831;44.870;37.336;2023-05-13T10:22:54;22.76;37.79
76104;HTU21D;64831;44.870;37.336;2023-05-13T10:25:20;22.81;38.06
76104;HTU21D;64831;44.870;37.336;2023-05-13T10:27:47;22.77;37.86
76104;HTU21D;64831;44.870;37.336;2023-05-13T10:30:14;22.61;38.40
76104;HTU21D;64831;44.870;37.336;2023-05-13T10:32:42;22.54;38.37
76104;HTU21D;64831;44.870;37.336;2023-05-13T10:35:13;22.47;38.85
76104;HTU21D;64831;44.870;37.336;2023-05-13T10:38:08;22.44;39.05
76104;HTU21D;64831;44.870;37.336;2023-05-13T10:43:38;22.53;39.07
76104;HTU21D;64831;44.870;37.336;2023-05-13T10:46:07;22.54;38.69
76104;HTU21D;64831;44.870;37.336;2023-05-13T10:48:46;22.60;38.74
76104;HTU21D;64831;44.870;37.336;2023-05-13T10:51:14;22.55;38.93
76104;HTU21D;64831;44.870;37.336;2023-05-13T10:53:47;22.47;39.04
76104;HTU21D;64831;44.870;37.336;2023-05-13T10:56:13;22.50;39.20
76104;HTU21D;64831;44.870;37.336;2023-05-13T10:58:39;22.55;39.46
76104;HTU21D;64831;44.870;37.336;2023-05-13T11:01:28;22.54;38.94
76104;HTU21D;64831;44.870;37.336;2023-05-13T11:03:56;22.43;39.39
76104;HTU21D;64831;44.870;37.336;2023-05-13T11:06:27;22.37;39.81
76104;HTU21D;64831;44.870;37.336;2023-05-13T11:08:54;22.34;39.87
76104;HTU21D;64831;44.870;37.336;2023-05-13T11:13:49;22.33;39.75
76104;HTU21D;64831;44.870;37.336;2023-05-13T11:16:15;22.42;39.55
76104;HTU21D;64831;44.870;37.336;2023-05-13T11:18:41;22.39;39.53
76104;HTU21D;64831;44.870;37.336;2023-05-13T11:21:07;22.28;39.56
76104;HTU21D;64831;44.870;37.336;2023-05-13T11:23:59;22.16;39.59
76104;HTU21D;64831;44.870;37.336;2023-05-13T11:26:25;22.22;39.71
76104;HTU21D;64831;44.870;37.336;2023-05-13T11:28:55;22.22;40.08
76104;HTU21D;64831;44.870;37.336;2023-05-13T11:31:26;22.37;40.10
76104;HTU21D;64831;44.870;37.336;2023-05-13T11:34:07;22.53;39.87
76104;HTU21D;64831;44.870;37.336;2023-05-13T11:36:39;22.62;39.48
76104;HTU21D;64831;44.870;37.336;2023-05-13T11:41:40;22.67;38.81
76104;HTU21D;64831;44.870;37.336;2023-05-13T11:44:07;22.48;37.25
76104;HTU21D;64831;44.870;37.336;2023-05-13T11:46:33;22.46;37.62
76104;HTU21D;64831;44.870;37.336;2023-05-13T11:48:59;22.44;37.84
76104;HTU21D;64831;44.870;37.336;2023-05-13T11:51:25;22.50;37.79
76104;HTU21D;64831;44.870;37.336;2023-05-13T11:53:58;22.61;37.79
76104;HTU21D;64831;44.870;37.336;2023-05-13T11:56:26;22.65;37.91
76104;HTU21D;64831;44.870;37.336;2023-05-13T11:58:53;22.58;37.61
76104;HTU21D;64831;44.870;37.336;2023-05-13T12:01:19;22.41;37.49
76104;HTU21D;64831;44.870;37.336;2023-05-13T12:03:46;22.37;37.72
76104;HTU21D;64831;44.870;37.336;2023-05-13T12:06:12;22.23;37.72
76104;HTU21D;64831;44.870;37.336;2023-05-13T12:08:45;22.09;37.71
76104;HTU21D;64831;44.870;37.336;2023-05-13T12:11:12;22.05;38.48
76104;HTU21D;64831;44.870;37.336;2023-05-13T12:13:41;21.98;38.78
76104;HTU21D;64831;44.870;37.336;2023-05-13T12:16:07;22.02;38.67
76104;HTU21D;64831;44.870;37.336;2023-05-13T12:18:36;21.96;38.52
76104;HTU21D;64831;44.870;37.336;2023-05-13T12:21:13;21.93;38.20
76104;HTU21D;64831;44.870;37.336;2023-05-13T12:23:39;21.94;38.45
76104;HTU21D;64831;44.870;37.336;2023-05-13T12:26:06;21.91;38.85
76104;HTU21D;64831;44.870;37.336;2023-05-13T12:28:32;21.90;38.64
76104;HTU21D;64831;44.870;37.336;2023-05-13T12:31:00;21.93;38.92
76104;HTU21D;64831;44.870;37.336;2023-05-13T12:33:28;21.93;39.14
76104;HTU21D;64831;44.870;37.336;2023-05-13T12:36:21;21.97;38.86
76104;HTU21D;64831;44.870;37.336;2023-05-13T12:39:00;21.94;38.94
76104;HTU21D;64831;44.870;37.336;2023-05-13T12:41:28;21.88;38.53
76104;HTU21D;64831;44.870;37.336;2023-05-13T12:44:09;21.83;38.78
76104;HTU21D;64831;44.870;37.336;2023-05-13T12:46:36;21.87;38.86
76104;HTU21D;64831;44.870;37.336;2023-05-13T12:49:03;21.91;38.94
76104;HTU21D;64831;44.870;37.336;2023-05-13T12:51:29;21.87;39.17
76104;HTU21D;64831;44.870;37.336;2023-05-13T12:53:56;21.82;39.60
76104;HTU21D;64831;44.870;37.336;2023-05-13T12:56:23;21.80;39.98
76104;HTU21D;64831;44.870;37.336;2023-05-13T12:58:51;21.80;40.37
76104;HTU21D;64831;44.870;37.336;2023-05-13T13:01:18;21.76;40.60
76104;HTU21D;64831;44.870;37.336;2023-05-13T13:03:44;21.78;40.39
76104;HTU21D;64831;44.870;37.336;2023-05-13T13:06:11;21.80;40.44
76104;HTU21D;64831;44.870;37.336;2023-05-13T13:08:38;21.73;40.91
76104;HTU21D;64831;44.870;37.336;2023-05-13T13:11:04;21.72;40.73
76104;HTU21D;64831;44.870;37.336;2023-05-13T13:13:31;21.66;40.64
76104;HTU21D;64831;44.870;37.336;2023-05-13T13:15:58;21.60;40.81
76104;HTU21D;64831;44.870;37.336;2023-05-13T13:18:24;21.58;41.10
76104;HTU21D;64831;44.870;37.336;2023-05-13T13:20:51;21.55;41.31
76104;HTU21D;64831;44.870;37.336;2023-05-13T13:23:20;21.58;41.05
76104;HTU21D;64831;44.870;37.336;2023-05-13T13:25:46;21.54;41.06
76104;HTU21D;64831;44.870;37.336;2023-05-13T13:28:12;21.50;41.33
76104;HTU21D;64831;44.870;37.336;2023-05-13T13:30:38;21.54;41.25
76104;HTU21D;64831;44.870;37.336;2023-05-13T13:33:30;21.53;41.20
76104;HTU21D;64831;44.870;37.336;2023-05-13T13:35:56;21.46;41.24
76104;HTU21D;64831;44.870;37.336;2023-05-13T13:38:22;21.48;41.15
76104;HTU21D;64831;44.870;37.336;2023-05-13T13:40:48;21.48;41.16
76104;HTU21D;64831;44.870;37.336;2023-05-13T13:43:14;21.43;40.89
76104;HTU21D;64831;44.870;37.336;2023-05-13T13:45:40;21.43;40.97
76104;HTU21D;64831;44.870;37.336;2023-05-13T13:48:06;21.36;41.26
76104;HTU21D;64831;44.870;37.336;2023-05-13T13:50:32;21.34;41.37
76104;HTU21D;64831;44.870;37.336;2023-05-13T13:52:58;21.33;41.55
76104;HTU21D;64831;44.870;37.336;2023-05-13T13:55:25;21.27;41.53
76104;HTU21D;64831;44.870;37.336;2023-05-13T13:57:51;21.20;41.75
76104;HTU21D;64831;44.870;37.336;2023-05-13T14:00:17;21.14;42.05
76104;HTU21D;64831;44.870;37.336;2023-05-13T14:02:43;21.08;42.16
76104;HTU21D;64831;44.870;37.336;2023-05-13T14:05:11;21.06;42.22
76104;HTU21D;64831;44.870;37.336;2023-05-13T14:07:37;21.01;42.36
76104;HTU21D;64831;44.870;37.336;2023-05-13T14:10:04;20.98;42.58
76104;HTU21D;64831;44.870;37.336;2023-05-13T14:12:31;20.93;42.77
76104;HTU21D;64831;44.870;37.336;2023-05-13T14:14:57;20.92;42.45
76104;HTU21D;64831;44.870;37.336;2023-05-13T14:17:23;20.90;42.33
76104;HTU21D;64831;44.870;37.336;2023-05-13T14:19:50;20.91;42.52
76104;HTU21D;64831;44.870;37.336;2023-05-13T14:22:17;20.92;42.45
76104;HTU21D;64831;44.870;37.336;2023-05-13T14:24:43;20.91;42.36
76104;HTU21D;64831;44.870;37.336;2023-05-13T14:27:09;20.95;42.53
76104;HTU21D;64831;44.870;37.336;2023-05-13T14:29:35;20.96;42.58
76104;HTU21D;64831;44.870;37.336;2023-05-13T14:32:01;20.93;42.74
76104;HTU21D;64831;44.870;37.336;2023-05-13T14:34:28;20.90;42.77
76104;HTU21D;64831;44.870;37.336;2023-05-13T14:36:54;20.89;42.97
76104;HTU21D;64831;44.870;37.336;2023-05-13T14:39:20;20.78;43.42
76104;HTU21D;64831;44.870;37.336;2023-05-13T14:41:46;20.75;43.41
76104;HTU21D;64831;44.870;37.336;2023-05-13T14:44:12;20.73;43.55
76104;HTU21D;64831;44.870;37.336;2023-05-13T14:46:38;20.72;43.61
76104;HTU21D;64831;44.870;37.336;2023-05-13T14:49:07;20.73;43.82
76104;HTU21D;64831;44.870;37.336;2023-05-13T14:51:33;20.73;43.82
76104;HTU21D;64831;44.870;37.336;2023-05-13T14:54:00;20.73;43.85
76104;HTU21D;64831;44.870;37.336;2023-05-13T14:56:26;20.69;43.81
76104;HTU21D;64831;44.870;37.336;2023-05-13T14:58:52;20.63;43.81
76104;HTU21D;64831;44.870;37.336;2023-05-13T15:01:18;20.61;43.87
76104;HTU21D;64831;44.870;37.336;2023-05-13T15:03:44;20.54;44.03
76104;HTU21D;64831;44.870;37.336;2023-05-13T15:06:10;20.54;44.06
76104;HTU21D;64831;44.870;37.336;2023-05-13T15:08:36;20.47;44.22
76104;HTU21D;64831;44.870;37.336;2023-05-13T15:11:02;20.44;44.22
76104;HTU21D;64831;44.870;37.336;2023-05-13T15:13:29;20.41;44.28
76104;HTU21D;64831;44.870;37.336;2023-05-13T15:16:03;20.35;44.32
76104;HTU21D;64831;44.870;37.336;2023-05-13T15:18:29;20.31;44.32
76104;HTU21D;64831;44.870;37.336;2023-05-13T15:20:55;20.28;44.33